createdAt,value
2023-01-13T00:04:59.332Z,2.50
2023-01-13T00:10:01.184Z,2.20
2023-01-13T00:15:02.862Z,3.87
2023-01-13T00:20:05.164Z,2.60
2023-01-13T00:25:07.311Z,3.10
2023-01-13T00:30:09.471Z,2.67
2023-01-13T00:35:11.104Z,2.47
2023-01-13T00:40:12.999Z,1.93
2023-01-13T00:45:14.673Z,2.30
2023-01-13T00:50:16.554Z,4.93
2023-01-13T00:55:18.123Z,1.90
2023-01-13T01:00:20.049Z,4.50
2023-01-13T01:05:21.787Z,2.10
2023-01-13T01:10:23.495Z,3.80
2023-01-13T01:15:25.244Z,2.73
2023-01-13T01:20:26.858Z,3.73
2023-01-13T01:25:28.444Z,2.77
2023-01-13T01:30:30.639Z,3.13
2023-01-13T01:35:32.228Z,2.13
2023-01-13T01:40:33.947Z,2.60
2023-01-13T01:45:35.755Z,3.17
2023-01-13T01:50:39.273Z,2.20
2023-01-13T01:55:41.416Z,4.17
2023-01-13T02:00:43.178Z,2.90
2023-01-13T02:05:44.886Z,2.90
2023-01-13T02:10:53.515Z,1.77
2023-01-13T02:16:12.096Z,1.97
2023-01-13T02:21:25.500Z,4.10
2023-01-13T02:26:59.185Z,2.83
2023-01-13T02:32:12.812Z,4.00
2023-01-13T02:37:27.595Z,1.90
2023-01-13T02:42:52.410Z,1.80
2023-01-13T02:47:56.858Z,3.03
2023-01-13T02:53:03.872Z,2.43
2023-01-13T02:58:08.458Z,2.47
2023-01-13T03:03:10.039Z,2.97
2023-01-13T03:08:17.878Z,1.77
2023-01-13T03:13:53.689Z,2.57
2023-01-13T03:19:13.616Z,1.87
2023-01-13T03:24:28.875Z,2.60
2023-01-13T03:29:41.407Z,2.47
2023-01-13T03:34:49.209Z,2.40
2023-01-13T03:39:57.449Z,1.77
2023-01-13T03:45:14.616Z,1.90
2023-01-13T03:50:24.423Z,1.90
2023-01-13T03:55:35.708Z,2.57
2023-01-13T04:00:44.137Z,2.37
2023-01-13T04:05:51.494Z,2.60
2023-01-13T04:10:55.985Z,2.30
2023-01-13T04:15:59.825Z,1.87
2023-01-13T04:21:02.195Z,2.37
2023-01-13T04:26:04.955Z,3.50
2023-01-13T04:31:06.581Z,3.37
2023-01-13T04:36:08.527Z,1.77
2023-01-13T04:41:10.187Z,1.73
2023-01-13T04:46:11.980Z,1.93
2023-01-13T04:51:13.572Z,2.13
2023-01-13T04:56:15.134Z,2.63
2023-01-13T05:01:16.854Z,1.90
2023-01-13T05:06:18.741Z,2.47
2023-01-13T05:11:39.003Z,4.17
2023-01-13T05:16:59.263Z,2.07
2023-01-13T05:22:20.351Z,2.80
2023-01-13T05:27:22.220Z,3.37
2023-01-13T05:32:24.756Z,2.90
2023-01-13T05:37:27.741Z,2.33
2023-01-13T05:42:48.001Z,2.10
2023-01-13T05:47:50.140Z,2.93
2023-01-13T05:52:51.806Z,1.90
2023-01-13T05:57:53.358Z,3.10
2023-01-13T06:02:55.054Z,2.87
2023-01-13T06:08:01.405Z,4.03
2023-01-13T06:13:04.362Z,2.10
2023-01-13T06:18:06.092Z,2.60
2023-01-13T06:23:09.792Z,2.47
2023-01-13T06:28:11.429Z,2.47
2023-01-13T06:33:24.230Z,2.37
2023-01-13T06:38:28.814Z,2.03
2023-01-13T06:43:30.523Z,2.30
2023-01-13T06:48:35.066Z,1.90
2023-01-13T06:53:36.730Z,1.97
2023-01-13T06:58:38.443Z,2.90
2023-01-13T07:03:40.797Z,1.57
2023-01-13T07:08:42.456Z,2.27
2023-01-13T07:14:02.645Z,2.10
2023-01-13T07:19:04.327Z,1.80
2023-01-13T07:24:06.221Z,2.60
2023-01-13T07:29:07.910Z,2.97
2023-01-13T07:34:09.556Z,6.70
2023-01-13T07:39:11.234Z,2.90
2023-01-13T07:44:12.960Z,2.97
2023-01-13T07:49:14.653Z,2.77
2023-01-13T07:54:17.155Z,2.83
2023-01-13T07:59:18.734Z,3.97
2023-01-13T08:04:20.403Z,2.13
2023-01-13T08:09:22.041Z,3.67
2023-01-13T08:14:23.638Z,3.57
2023-01-13T08:19:25.310Z,5.53
2023-01-13T08:24:26.937Z,3.30
2023-01-13T08:29:28.552Z,3.23
2023-01-13T08:34:30.196Z,4.67
2023-01-13T08:39:31.844Z,2.97
2023-01-13T08:44:33.508Z,2.70
2023-01-13T08:49:35.166Z,3.13
2023-01-13T08:54:39.225Z,5.50
2023-01-13T08:59:41.229Z,4.60
2023-01-13T09:04:43.008Z,2.37
2023-01-13T09:09:45.058Z,2.80
2023-01-13T09:14:47.060Z,3.00
2023-01-13T09:19:49.507Z,2.63
2023-01-13T09:24:51.193Z,4.23
2023-01-13T09:29:52.928Z,5.73
2023-01-13T09:35:00.641Z,4.27
2023-01-13T09:40:04.922Z,3.67
2023-01-13T09:45:17.626Z,5.63
2023-01-13T09:50:44.973Z,4.50
2023-01-13T09:55:46.935Z,8.77
2023-01-13T10:01:03.833Z,4.17
2023-01-13T10:06:30.789Z,5.90
2023-01-13T10:11:59.181Z,3.90
2023-01-13T10:17:15.963Z,5.50
2023-01-13T10:22:38.792Z,5.57
2023-01-13T10:27:40.941Z,4.00
2023-01-13T10:32:46.409Z,5.00
2023-01-13T10:37:57.361Z,6.10
2023-01-13T10:43:08.710Z,5.07
2023-01-13T10:48:15.056Z,3.63
2023-01-13T10:53:25.497Z,5.17
2023-01-13T10:58:28.217Z,4.77
2023-01-13T11:06:31.157Z,5.30
2023-01-13T11:11:45.589Z,6.57
2023-01-13T11:16:53.874Z,5.50
2023-01-13T11:22:07.468Z,5.50
2023-01-13T11:27:14.551Z,5.53
2023-01-13T11:32:21.863Z,8.07
2023-01-13T11:37:28.579Z,9.00
2023-01-13T11:42:55.955Z,4.60
2023-01-13T11:48:00.500Z,6.20
2023-01-13T11:53:05.507Z,7.33
2023-01-13T11:58:07.032Z,7.63
2023-01-13T12:03:30.940Z,6.93
2023-01-13T12:08:58.104Z,11.00
2023-01-13T12:14:20.320Z,8.00
2023-01-13T12:19:28.206Z,7.77
2023-01-13T12:24:35.744Z,6.23
2023-01-13T12:29:38.934Z,6.97
2023-01-13T12:35:00.122Z,5.53
2023-01-13T12:40:25.577Z,8.07
2023-01-13T12:45:30.293Z,5.37
2023-01-13T12:50:32.015Z,3.40
2023-01-13T12:55:36.093Z,6.73
2023-01-13T13:00:56.923Z,7.57
2023-01-13T13:06:03.657Z,4.93
2023-01-13T13:11:37.122Z,5.77
2023-01-13T13:16:52.591Z,10.23
2023-01-13T13:22:12.421Z,6.50
2023-01-13T13:27:18.093Z,8.53
2023-01-13T13:32:22.297Z,8.23
2023-01-13T13:37:59.065Z,8.47
2023-01-13T13:43:19.231Z,4.60
2023-01-13T13:48:27.153Z,6.27
2023-01-13T13:53:34.506Z,15.40
2023-01-13T13:58:37.292Z,4.63
2023-01-13T14:03:40.312Z,10.30
2023-01-13T14:08:50.198Z,9.13
2023-01-13T14:14:06.504Z,6.93
2023-01-13T14:19:26.401Z,10.03
2023-01-13T14:24:28.796Z,10.93
2023-01-13T14:29:30.526Z,9.07
2023-01-13T14:34:33.503Z,9.13
2023-01-13T14:39:41.075Z,6.50
2023-01-13T14:44:47.908Z,5.87
2023-01-13T14:50:22.021Z,7.67
2023-01-13T14:55:27.185Z,8.83
2023-01-13T15:00:28.807Z,8.03
2023-01-13T15:05:36.000Z,7.00
2023-01-13T15:10:55.440Z,2.60
2023-01-13T15:15:59.396Z,4.53
2023-01-13T15:21:01.178Z,8.67
2023-01-13T15:26:03.453Z,6.47
2023-01-13T15:31:05.305Z,5.23
2023-01-13T15:36:21.014Z,5.10
2023-01-13T15:41:41.944Z,6.13
2023-01-13T15:46:44.321Z,12.77
2023-01-13T15:51:46.043Z,7.00
2023-01-13T15:56:48.407Z,9.77
2023-01-13T16:01:50.293Z,12.80
2023-01-13T16:06:52.041Z,6.83
2023-01-13T16:11:53.905Z,5.13
2023-01-13T16:16:55.643Z,5.97
2023-01-13T16:21:59.829Z,5.90
2023-01-13T16:27:01.532Z,5.60
2023-01-13T16:32:03.219Z,6.23
2023-01-13T16:37:06.579Z,7.33
2023-01-13T16:42:08.221Z,5.87
2023-01-13T16:47:14.664Z,14.23
2023-01-13T16:52:16.340Z,4.77
2023-01-13T16:57:18.092Z,7.97
2023-01-13T17:02:21.055Z,4.07
2023-01-13T17:07:22.914Z,7.20
2023-01-13T17:12:24.660Z,6.70
2023-01-13T17:17:28.099Z,7.47
2023-01-13T17:22:30.905Z,4.93
2023-01-13T17:27:32.692Z,6.53
2023-01-13T17:32:34.440Z,7.13
2023-01-13T17:37:36.162Z,4.87
2023-01-13T17:42:37.773Z,4.10
2023-01-13T17:47:39.465Z,4.40
2023-01-13T17:52:41.141Z,7.27
2023-01-13T17:57:42.757Z,3.83
2023-01-13T18:02:44.436Z,5.80
2023-01-13T18:07:46.146Z,4.10
2023-01-13T18:12:47.748Z,5.53
2023-01-13T18:17:49.425Z,5.87
2023-01-13T18:23:09.672Z,6.73
2023-01-13T18:28:11.449Z,7.20
2023-01-13T18:33:13.165Z,4.20
2023-01-13T18:38:24.468Z,6.10
2023-01-13T18:43:26.188Z,4.43
2023-01-13T18:48:27.914Z,8.00
2023-01-13T18:53:29.717Z,2.03
2023-01-13T18:58:33.156Z,3.83
2023-01-13T19:03:34.898Z,3.93
2023-01-13T19:08:36.790Z,3.37
2023-01-13T19:13:38.467Z,3.90
2023-01-13T19:18:40.266Z,4.20
2023-01-13T19:23:42.052Z,3.43
2023-01-13T19:28:43.983Z,6.30
2023-01-13T19:33:45.735Z,3.57
2023-01-13T19:38:47.477Z,5.50
2023-01-13T19:44:07.703Z,5.50
2023-01-13T19:49:10.477Z,4.33
2023-01-13T19:54:12.130Z,4.50
2023-01-13T19:59:13.898Z,4.90
2023-01-13T20:04:18.429Z,8.50
2023-01-13T20:09:20.171Z,4.33
2023-01-13T20:14:23.476Z,7.20
2023-01-13T20:19:25.113Z,8.00
2023-01-13T20:24:26.843Z,6.73
2023-01-13T20:29:28.852Z,9.77
2023-01-13T20:34:30.563Z,6.03
2023-01-13T20:39:33.023Z,8.90
2023-01-13T20:44:35.050Z,8.67
2023-01-13T20:49:37.270Z,14.80
2023-01-13T20:54:40.685Z,10.13
2023-01-13T20:59:42.533Z,11.47
2023-01-13T21:04:44.254Z,9.63
2023-01-13T21:09:45.970Z,12.70
2023-01-13T21:15:06.194Z,7.57
2023-01-13T21:20:13.205Z,6.83
2023-01-13T21:25:15.838Z,11.07
2023-01-13T21:30:18.127Z,7.80
2023-01-13T21:35:19.824Z,7.37
2023-01-13T21:40:21.486Z,14.03
2023-01-13T21:45:42.069Z,12.20
2023-01-13T21:50:45.131Z,9.57
2023-01-13T21:55:52.373Z,7.40
2023-01-13T22:00:54.242Z,12.60
2023-01-13T22:05:56.538Z,10.90
2023-01-13T22:10:58.651Z,12.53
2023-01-13T22:16:04.509Z,9.23
2023-01-13T22:21:06.657Z,12.13
2023-01-13T22:26:08.911Z,9.23
2023-01-13T22:31:12.689Z,5.90
2023-01-13T22:36:15.612Z,16.03
2023-01-13T22:41:17.248Z,11.33
2023-01-13T22:46:18.957Z,12.83
2023-01-13T22:51:22.786Z,12.43
2023-01-13T22:56:26.291Z,13.30
2023-01-13T23:01:30.256Z,12.30
2023-01-13T23:06:33.985Z,11.97
2023-01-13T23:11:36.256Z,10.73
2023-01-13T23:16:39.639Z,9.40
2023-01-13T23:21:41.532Z,6.37
2023-01-13T23:26:43.169Z,8.53
2023-01-13T23:31:44.818Z,9.50
2023-01-13T23:36:46.563Z,8.37
2023-01-13T23:41:48.179Z,10.27
2023-01-13T23:46:49.799Z,8.07
2023-01-13T23:51:52.007Z,9.53
2023-01-13T23:56:53.702Z,7.47
